WetterOnline ( https://www.wetteronline.de )

Wetter aktuell Blaubeuren

Aktuelles Wetter: Ulm-Mähringen (592m)

6-stündlich | Neueste Meldungen
Ortszeit Temperatur Wetter
Fr, 14.05. 8:00 7.9° C wolkenlos
Fr, 14.05. 2:00 6.8° C bedeckt
Do, 13.05. 20:00 10.8° C wolkig
Do, 13.05. 14:00 12.7° C bedeckt
Do, 13.05. 8:00 7.0° C bedeckt
Do, 13.05. 2:00 5.0° C leicht bewölkt
Mi, 12.05. 20:00 10.8° C bedeckt
Mi, 12.05. 14:00 9.1° C bedeckt
Ortszeit Temperatur Wetter
Fr, 14.05. 10:00 11.2° C bewölkt
Fr, 14.05. 9:50 11.2° C bewölkt
Fr, 14.05. 9:40 11.3° C wolkig
Fr, 14.05. 9:30 10.8° C leicht bewölkt
Fr, 14.05. 9:20 10.8° C leicht bewölkt
Fr, 14.05. 9:10 10.6° C wolkenlos
Fr, 14.05. 9:00 10.2° C wolkenlos
Fr, 14.05. 8:30 9.4° C wolkenlos
Fr, 14.05. 8:00 7.9° C wolkenlos
Fr, 14.05. 7:30 7.0° C fast wolkenlos
Fr, 14.05. 7:00 5.5° C leicht bewölkt
Ortszeit Relative Feuchte Sichtweite
Fr, 14.05. 8:00 76% 40 km
Fr, 14.05. 2:00 89% >70 km
Do, 13.05. 20:00 73% >70 km
Do, 13.05. 14:00 64% >70 km
Do, 13.05. 8:00 95% 24 km
Do, 13.05. 2:00 97% 6 km
Mi, 12.05. 20:00 77% >70 km
Mi, 12.05. 14:00 87% 30 km
Ortszeit Relative Feuchte Sichtweite
Fr, 14.05. 10:00 63% >70 km
Fr, 14.05. 9:50 63% -
Fr, 14.05. 9:40 65% -
Fr, 14.05. 9:30 68% 55 km
Fr, 14.05. 9:20 68% -
Fr, 14.05. 9:10 67% -
Fr, 14.05. 9:00 68% 65 km
Fr, 14.05. 8:30 72% >70 km
Fr, 14.05. 8:00 76% 40 km
Fr, 14.05. 7:30 80% 35 km
Fr, 14.05. 7:00 89% 45 km
Ortszeit Niederschlagsmenge Niederschlagsart
Fr, 14.05. 8:00 0.0 l/m2 in 12 Std. -
Fr, 14.05. 2:00 0.0 l/m2 in 6 Std. -
Do, 13.05. 20:00 0.1 l/m2 in 12 Std. Regen
Do, 13.05. 14:00 0.1 l/m2 in 6 Std. Regen
Do, 13.05. 8:00 0.0 l/m2 in 12 Std. -
Do, 13.05. 2:00 0.0 l/m2 in 6 Std. -
Mi, 12.05. 20:00 0.3 l/m2 in 12 Std. Regen
Mi, 12.05. 14:00 0.2 l/m2 in 6 Std. Regen
Ortszeit Niederschlagsmenge Niederschlagsart
Fr, 14.05. 10:00 0.0 l/m2 in 1 Std. -
Fr, 14.05. 9:50 keine Meldung -
Fr, 14.05. 9:40 keine Meldung -
Fr, 14.05. 9:30 0.0 l/m2 in 1 Std. -
Fr, 14.05. 9:20 keine Meldung -
Fr, 14.05. 9:10 keine Meldung -
Fr, 14.05. 9:00 0.0 l/m2 in 1 Std. -
Fr, 14.05. 8:30 0.0 l/m2 in 1 Std. -
Fr, 14.05. 8:00 0.0 l/m2 in 1 Std. -
Fr, 14.05. 7:30 0.0 l/m2 in 1 Std. -
Fr, 14.05. 7:00 0.0 l/m2 in 1 Std. -
Ortszeit Stärke Spitze Richtung
km/h Bft. km/h Grad Sektor
Fr, 14.05. 8:00 6 1 15 200° S
Fr, 14.05. 2:00 7 2 22 230° SW
Do, 13.05. 20:00 9 2 30 280° W
Do, 13.05. 14:00 14 3 25 220° SW
Do, 13.05. 8:00 2 1 7 70° O
Do, 13.05. 2:00 6 1 11 310° NW
Mi, 12.05. 20:00 4 1 18 220° SW
Mi, 12.05. 14:00 11 2 25 290° W
Ortszeit Stärke Spitze Richtung
km/h Bft. km/h Grad Sektor
Fr, 14.05. 10:00 4 1 22 270° W
Fr, 14.05. 9:50 4 1 - 270° W
Fr, 14.05. 9:40 7 2 - 200° S
Fr, 14.05. 9:30 9 2 17 180° S
Fr, 14.05. 9:20 9 2 - 180° S
Fr, 14.05. 9:10 7 2 - 190° S
Fr, 14.05. 9:00 7 2 11 190° S
Fr, 14.05. 8:30 6 1 9 230° SW
Fr, 14.05. 8:00 6 1 9 200° S
Fr, 14.05. 7:30 4 1 7 210° SW
Fr, 14.05. 7:00 4 1 14 70° O
Ortszeit Untergrenze Bedeckung Gattung
total tief tief mittel hoch
Fr, 14.05. 8:00 - 0/8 0/8 - - -
Fr, 14.05. 2:00 3000 m 8/8 8/8 - - -
Do, 13.05. 20:00 750 m 7/8 5/8 - - -
Do, 13.05. 14:00 1470 m 8/8 8/8 - - -
Do, 13.05. 8:00 1380 m 8/8 8/8 - - -
Do, 13.05. 2:00 3000 m 2/8 2/8 - - -
Mi, 12.05. 20:00 1320 m 8/8 8/8 - - -
Mi, 12.05. 14:00 300 m 8/8 8/8 - - -
Ortszeit Bedeckungsgrad in Achtel und Wolkenuntergrenze
Fr, 14.05. 10:00 4(810m) 7(1380m) 7(1500m)
Fr, 14.05. 9:50 4(810m) 7(1380m) 7(1500m)
Fr, 14.05. 9:40 4(780m) 6(1020m) 6(1410m)
Fr, 14.05. 9:30 2(870m) 3(1110m)
Fr, 14.05. 9:20 2(870m) 3(1110m) 3(1350m)
Fr, 14.05. 9:10 keine Wolken
Fr, 14.05. 9:00 keine Wolken
Fr, 14.05. 8:30 keine Wolken
Fr, 14.05. 8:00 keine Wolken
Fr, 14.05. 7:30 1(1800m)
Fr, 14.05. 7:00 3(3300m)
Ortszeit Luftdruck NN (hPa) Tendenz (hPa in 3 Std.)
Fr, 14.05. 8:00 1010 + 0,1
Fr, 14.05. 2:00 1010 - 0,1
Do, 13.05. 20:00 1008 + 0,7
Do, 13.05. 14:00 1007 - 0,8
Do, 13.05. 8:00 1010 - 0,4
Do, 13.05. 2:00 1011 - 1,3
Mi, 12.05. 20:00 1011 - 0,5
Mi, 12.05. 14:00 1013 - 0,3
Ortszeit Luftdruck NN (hPa) Tendenz (hPa in 3 Std.)
Fr, 14.05. 10:00 1009 + 0,5
Fr, 14.05. 9:50 1009 keine Meldung
Fr, 14.05. 9:40 1009 keine Meldung
Fr, 14.05. 9:30 1009 + 0,5
Fr, 14.05. 9:20 1009 keine Meldung
Fr, 14.05. 9:10 1009 keine Meldung
Fr, 14.05. 9:00 1009 + 0,4
Fr, 14.05. 8:30 1009 + 0,2
Fr, 14.05. 8:00 1010 + 0,1
Fr, 14.05. 7:30 1010 0,0
Fr, 14.05. 7:00 1010 - 0,1
Ortszeit Schneehöhe (cm)
Fr, 14.05. 8:00 0
Fr, 14.05. 2:00 0
Do, 13.05. 20:00 0
Do, 13.05. 14:00 0
Do, 13.05. 8:00 0
Do, 13.05. 2:00 0
Mi, 12.05. 20:00 0
Mi, 12.05. 14:00 0
Ortszeit Schneehöhe (cm)
Fr, 14.05. 10:00 0
Fr, 14.05. 9:50 0
Fr, 14.05. 9:40 0
Fr, 14.05. 9:30 0
Fr, 14.05. 9:20 0
Fr, 14.05. 9:10 0
Fr, 14.05. 9:00 0
Fr, 14.05. 8:30 0
Fr, 14.05. 8:00 0
Fr, 14.05. 7:30 0
Fr, 14.05. 7:00 0
Link zu dieser Seite / Seite empfehlen

Das Wetter in ...